sensor_id;sensor_type;location;lat;lon;timestamp;P1;durP1;ratioP1;P2;durP2;ratioP2
52894;SDS011;38759;53.396;6.722;2023-05-27T00:02:15;15.32;;;2.88;;
52894;SDS011;38759;53.396;6.722;2023-05-27T00:04:41;10.43;;;2.20;;
52894;SDS011;38759;53.396;6.722;2023-05-27T00:07:07;9.90;;;2.13;;
52894;SDS011;38759;53.396;6.722;2023-05-27T00:09:33;13.43;;;2.45;;
52894;SDS011;38759;53.396;6.722;2023-05-27T00:11:58;16.85;;;3.03;;
52894;SDS011;38759;53.396;6.722;2023-05-27T00:14:25;11.65;;;2.58;;
52894;SDS011;38759;53.396;6.722;2023-05-27T00:16:51;9.82;;;2.08;;
52894;SDS011;38759;53.396;6.722;2023-05-27T00:19:16;13.60;;;3.15;;
52894;SDS011;38759;53.396;6.722;2023-05-27T00:21:42;17.02;;;2.20;;
52894;SDS011;38759;53.396;6.722;2023-05-27T00:24:08;12.57;;;2.35;;
52894;SDS011;38759;53.396;6.722;2023-05-27T00:26:35;14.10;;;2.78;;
52894;SDS011;38759;53.396;6.722;2023-05-27T00:29:01;19.13;;;2.70;;
52894;SDS011;38759;53.396;6.722;2023-05-27T00:31:26;14.15;;;2.42;;
52894;SDS011;38759;53.396;6.722;2023-05-27T00:33:52;11.98;;;2.53;;
52894;SDS011;38759;53.396;6.722;2023-05-27T00:36:18;16.58;;;2.22;;
52894;SDS011;38759;53.396;6.722;2023-05-27T00:38:43;9.02;;;2.25;;
52894;SDS011;38759;53.396;6.722;2023-05-27T00:41:10;16.00;;;2.50;;
52894;SDS011;38759;53.396;6.722;2023-05-27T00:43:37;22.67;;;3.85;;
52894;SDS011;38759;53.396;6.722;2023-05-27T00:46:04;12.68;;;2.42;;
52894;SDS011;38759;53.396;6.722;2023-05-27T00:48:29;10.43;;;3.45;;
52894;SDS011;38759;53.396;6.722;2023-05-27T00:50:57;7.32;;;2.47;;
52894;SDS011;38759;53.396;6.722;2023-05-27T00:53:23;13.95;;;2.38;;
52894;SDS011;38759;53.396;6.722;2023-05-27T00:55:50;10.93;;;2.03;;
52894;SDS011;38759;53.396;6.722;2023-05-27T00:58:18;14.52;;;2.42;;
52894;SDS011;38759;53.396;6.722;2023-05-27T01:00:46;11.63;;;2.42;;
52894;SDS011;38759;53.396;6.722;2023-05-27T01:03:15;11.00;;;2.25;;
52894;SDS011;38759;53.396;6.722;2023-05-27T01:05:41;10.07;;;2.50;;
52894;SDS011;38759;53.396;6.722;2023-05-27T01:10:53;13.73;;;2.70;;
52894;SDS011;38759;53.396;6.722;2023-05-27T01:13:35;10.70;;;2.92;;
52894;SDS011;38759;53.396;6.722;2023-05-27T01:16:15;16.33;;;2.25;;
52894;SDS011;38759;53.396;6.722;2023-05-27T01:18:42;9.45;;;2.58;;
52894;SDS011;38759;53.396;6.722;2023-05-27T01:21:10;16.15;;;2.55;;
52894;SDS011;38759;53.396;6.722;2023-05-27T01:23:38;18.65;;;2.75;;
52894;SDS011;38759;53.396;6.722;2023-05-27T01:26:06;18.58;;;2.22;;
52894;SDS011;38759;53.396;6.722;2023-05-27T01:28:31;15.20;;;2.92;;
52894;SDS011;38759;53.396;6.722;2023-05-27T01:31:05;11.15;;;2.80;;
52894;SDS011;38759;53.396;6.722;2023-05-27T01:33:37;14.88;;;2.65;;
52894;SDS011;38759;53.396;6.722;2023-05-27T01:36:06;12.73;;;2.78;;
52894;SDS011;38759;53.396;6.722;2023-05-27T01:38:35;12.32;;;2.55;;
52894;SDS011;38759;53.396;6.722;2023-05-27T01:41:05;13.02;;;2.47;;
52894;SDS011;38759;53.396;6.722;2023-05-27T01:43:32;14.18;;;2.35;;
52894;SDS011;38759;53.396;6.722;2023-05-27T01:45:58;7.68;;;2.45;;
52894;SDS011;38759;53.396;6.722;2023-05-27T01:48:24;16.30;;;2.28;;
52894;SDS011;38759;53.396;6.722;2023-05-27T01:50:50;11.10;;;2.58;;
52894;SDS011;38759;53.396;6.722;2023-05-27T01:53:15;13.57;;;2.72;;
52894;SDS011;38759;53.396;6.722;2023-05-27T01:55:41;12.95;;;2.50;;
52894;SDS011;38759;53.396;6.722;2023-05-27T01:58:07;16.40;;;3.55;;
52894;SDS011;38759;53.396;6.722;2023-05-27T02:00:32;14.32;;;2.80;;
52894;SDS011;38759;53.396;6.722;2023-05-27T02:02:58;10.20;;;2.20;;
52894;SDS011;38759;53.396;6.722;2023-05-27T02:05:24;12.75;;;3.38;;
52894;SDS011;38759;53.396;6.722;2023-05-27T02:07:49;18.35;;;2.38;;
52894;SDS011;38759;53.396;6.722;2023-05-27T02:10:15;15.18;;;3.05;;
52894;SDS011;38759;53.396;6.722;2023-05-27T02:12:41;14.82;;;3.13;;
52894;SDS011;38759;53.396;6.722;2023-05-27T02:15:07;10.20;;;2.13;;
52894;SDS011;38759;53.396;6.722;2023-05-27T02:17:33;10.02;;;2.30;;
52894;SDS011;38759;53.396;6.722;2023-05-27T02:19:58;16.40;;;3.08;;
52894;SDS011;38759;53.396;6.722;2023-05-27T02:22:24;12.13;;;2.22;;
52894;SDS011;38759;53.396;6.722;2023-05-27T02:24:50;10.63;;;2.50;;
52894;SDS011;38759;53.396;6.722;2023-05-27T02:27:16;16.88;;;2.33;;
52894;SDS011;38759;53.396;6.722;2023-05-27T02:29:41;14.43;;;2.80;;
52894;SDS011;38759;53.396;6.722;2023-05-27T02:32:07;8.65;;;2.38;;
52894;SDS011;38759;53.396;6.722;2023-05-27T02:34:33;18.05;;;3.08;;
52894;SDS011;38759;53.396;6.722;2023-05-27T02:37:02;9.23;;;2.90;;
52894;SDS011;38759;53.396;6.722;2023-05-27T02:39:31;16.65;;;3.10;;
52894;SDS011;38759;53.396;6.722;2023-05-27T02:41:56;11.07;;;2.78;;
52894;SDS011;38759;53.396;6.722;2023-05-27T02:44:22;10.48;;;2.53;;
52894;SDS011;38759;53.396;6.722;2023-05-27T02:46:48;12.27;;;2.83;;
52894;SDS011;38759;53.396;6.722;2023-05-27T02:49:13;14.25;;;2.85;;
52894;SDS011;38759;53.396;6.722;2023-05-27T02:51:40;20.58;;;2.97;;
52894;SDS011;38759;53.396;6.722;2023-05-27T02:54:05;17.27;;;3.35;;
52894;SDS011;38759;53.396;6.722;2023-05-27T02:56:31;22.48;;;3.75;;
52894;SDS011;38759;53.396;6.722;2023-05-27T02:58:57;9.75;;;3.05;;
52894;SDS011;38759;53.396;6.722;2023-05-27T03:01:22;16.40;;;3.05;;
52894;SDS011;38759;53.396;6.722;2023-05-27T03:03:48;9.13;;;3.20;;
52894;SDS011;38759;53.396;6.722;2023-05-27T03:06:14;12.57;;;3.30;;
52894;SDS011;38759;53.396;6.722;2023-05-27T03:08:40;19.10;;;3.67;;
52894;SDS011;38759;53.396;6.722;2023-05-27T03:11:06;16.85;;;2.97;;
52894;SDS011;38759;53.396;6.722;2023-05-27T03:13:31;20.58;;;3.30;;
52894;SDS011;38759;53.396;6.722;2023-05-27T03:15:57;13.85;;;3.45;;
52894;SDS011;38759;53.396;6.722;2023-05-27T03:18:23;15.02;;;3.38;;
52894;SDS011;38759;53.396;6.722;2023-05-27T03:20:49;16.50;;;3.92;;
52894;SDS011;38759;53.396;6.722;2023-05-27T03:23:16;10.50;;;2.90;;
52894;SDS011;38759;53.396;6.722;2023-05-27T03:25:41;13.57;;;2.65;;
52894;SDS011;38759;53.396;6.722;2023-05-27T03:28:07;20.02;;;2.83;;
52894;SDS011;38759;53.396;6.722;2023-05-27T03:30:33;17.98;;;3.67;;
52894;SDS011;38759;53.396;6.722;2023-05-27T03:32:58;17.63;;;3.33;;
52894;SDS011;38759;53.396;6.722;2023-05-27T03:35:24;16.10;;;3.65;;
52894;SDS011;38759;53.396;6.722;2023-05-27T03:37:50;20.58;;;3.65;;
52894;SDS011;38759;53.396;6.722;2023-05-27T03:40:15;21.00;;;3.35;;
52894;SDS011;38759;53.396;6.722;2023-05-27T03:42:41;13.55;;;2.85;;
52894;SDS011;38759;53.396;6.722;2023-05-27T03:45:07;12.10;;;3.00;;
52894;SDS011;38759;53.396;6.722;2023-05-27T03:47:33;13.10;;;3.08;;
52894;SDS011;38759;53.396;6.722;2023-05-27T03:50:01;14.38;;;3.08;;
52894;SDS011;38759;53.396;6.722;2023-05-27T03:52:27;11.68;;;2.90;;
52894;SDS011;38759;53.396;6.722;2023-05-27T03:54:53;26.40;;;3.53;;
52894;SDS011;38759;53.396;6.722;2023-05-27T03:57:19;12.48;;;2.90;;
52894;SDS011;38759;53.396;6.722;2023-05-27T03:59:44;12.32;;;3.60;;
52894;SDS011;38759;53.396;6.722;2023-05-27T04:02:10;19.95;;;3.65;;
52894;SDS011;38759;53.396;6.722;2023-05-27T04:04:36;12.45;;;3.25;;
52894;SDS011;38759;53.396;6.722;2023-05-27T04:07:02;12.63;;;3.33;;
52894;SDS011;38759;53.396;6.722;2023-05-27T04:09:28;21.00;;;3.00;;
52894;SDS011;38759;53.396;6.722;2023-05-27T04:11:53;17.55;;;2.85;;
52894;SDS011;38759;53.396;6.722;2023-05-27T04:14:19;17.50;;;3.30;;
52894;SDS011;38759;53.396;6.722;2023-05-27T04:16:45;16.08;;;2.97;;
52894;SDS011;38759;53.396;6.722;2023-05-27T04:19:10;16.63;;;3.00;;
52894;SDS011;38759;53.396;6.722;2023-05-27T04:21:36;16.98;;;3.28;;
52894;SDS011;38759;53.396;6.722;2023-05-27T04:24:02;11.32;;;3.13;;
52894;SDS011;38759;53.396;6.722;2023-05-27T04:26:28;15.77;;;2.75;;
52894;SDS011;38759;53.396;6.722;2023-05-27T04:28:54;21.70;;;3.13;;
52894;SDS011;38759;53.396;6.722;2023-05-27T04:31:20;15.43;;;3.33;;
52894;SDS011;38759;53.396;6.722;2023-05-27T04:33:46;18.20;;;3.33;;
52894;SDS011;38759;53.396;6.722;2023-05-27T04:36:11;25.58;;;4.70;;
52894;SDS011;38759;53.396;6.722;2023-05-27T04:38:37;14.98;;;3.25;;
52894;SDS011;38759;53.396;6.722;2023-05-27T04:41:03;21.05;;;3.72;;
52894;SDS011;38759;53.396;6.722;2023-05-27T04:43:29;14.05;;;3.20;;
52894;SDS011;38759;53.396;6.722;2023-05-27T04:45:56;15.30;;;3.55;;
52894;SDS011;38759;53.396;6.722;2023-05-27T04:48:24;13.45;;;2.83;;
52894;SDS011;38759;53.396;6.722;2023-05-27T04:50:50;17.20;;;3.22;;
52894;SDS011;38759;53.396;6.722;2023-05-27T04:53:18;19.27;;;3.08;;
52894;SDS011;38759;53.396;6.722;2023-05-27T04:55:44;17.77;;;3.80;;
52894;SDS011;38759;53.396;6.722;2023-05-27T04:58:11;23.20;;;3.75;;
52894;SDS011;38759;53.396;6.722;2023-05-27T05:00:37;16.00;;;3.30;;
52894;SDS011;38759;53.396;6.722;2023-05-27T05:03:18;14.57;;;3.20;;
52894;SDS011;38759;53.396;6.722;2023-05-27T05:05:48;14.38;;;3.45;;
52894;SDS011;38759;53.396;6.722;2023-05-27T05:08:18;14.35;;;3.63;;
52894;SDS011;38759;53.396;6.722;2023-05-27T05:10:45;18.80;;;3.83;;
52894;SDS011;38759;53.396;6.722;2023-05-27T05:13:12;17.02;;;4.28;;
52894;SDS011;38759;53.396;6.722;2023-05-27T05:15:38;46.90;;;4.40;;
52894;SDS011;38759;53.396;6.722;2023-05-27T05:18:05;99.25;;;6.85;;
52894;SDS011;38759;53.396;6.722;2023-05-27T05:20:31;79.32;;;5.72;;
52894;SDS011;38759;53.396;6.722;2023-05-27T05:22:57;31.33;;;3.90;;
52894;SDS011;38759;53.396;6.722;2023-05-27T05:25:23;13.85;;;3.58;;
52894;SDS011;38759;53.396;6.722;2023-05-27T05:27:50;33.35;;;3.80;;
52894;SDS011;38759;53.396;6.722;2023-05-27T05:30:17;19.15;;;3.83;;
52894;SDS011;38759;53.396;6.722;2023-05-27T05:32:43;48.45;;;5.03;;
52894;SDS011;38759;53.396;6.722;2023-05-27T05:35:08;54.72;;;5.32;;
52894;SDS011;38759;53.396;6.722;2023-05-27T05:37:34;44.00;;;6.75;;
52894;SDS011;38759;53.396;6.722;2023-05-27T05:39:59;30.30;;;5.35;;
52894;SDS011;38759;53.396;6.722;2023-05-27T05:42:25;20.30;;;4.38;;
52894;SDS011;38759;53.396;6.722;2023-05-27T05:44:51;20.35;;;3.38;;
52894;SDS011;38759;53.396;6.722;2023-05-27T05:47:17;16.67;;;3.95;;
52894;SDS011;38759;53.396;6.722;2023-05-27T05:49:43;20.48;;;3.40;;
52894;SDS011;38759;53.396;6.722;2023-05-27T05:52:09;22.98;;;4.10;;
52894;SDS011;38759;53.396;6.722;2023-05-27T05:54:35;14.60;;;3.58;;
52894;SDS011;38759;53.396;6.722;2023-05-27T05:57:01;19.45;;;4.20;;
52894;SDS011;38759;53.396;6.722;2023-05-27T05:59:30;16.02;;;3.72;;
52894;SDS011;38759;53.396;6.722;2023-05-27T06:01:59;17.52;;;3.30;;
52894;SDS011;38759;53.396;6.722;2023-05-27T06:04:25;17.23;;;4.05;;
52894;SDS011;38759;53.396;6.722;2023-05-27T06:06:50;23.17;;;4.15;;
52894;SDS011;38759;53.396;6.722;2023-05-27T06:09:16;15.57;;;3.40;;
52894;SDS011;38759;53.396;6.722;2023-05-27T06:11:42;13.65;;;3.50;;
52894;SDS011;38759;53.396;6.722;2023-05-27T06:14:07;24.83;;;3.95;;
52894;SDS011;38759;53.396;6.722;2023-05-27T06:16:33;23.92;;;3.50;;
52894;SDS011;38759;53.396;6.722;2023-05-27T06:19:02;17.17;;;3.10;;
52894;SDS011;38759;53.396;6.722;2023-05-27T06:21:28;20.02;;;3.67;;
52894;SDS011;38759;53.396;6.722;2023-05-27T06:23:58;21.38;;;3.83;;
52894;SDS011;38759;53.396;6.722;2023-05-27T06:26:24;18.63;;;3.70;;
52894;SDS011;38759;53.396;6.722;2023-05-27T06:28:50;17.75;;;3.55;;
52894;SDS011;38759;53.396;6.722;2023-05-27T06:31:16;21.77;;;4.20;;
52894;SDS011;38759;53.396;6.722;2023-05-27T06:33:42;26.23;;;4.55;;
52894;SDS011;38759;53.396;6.722;2023-05-27T06:36:07;14.60;;;3.17;;
52894;SDS011;38759;53.396;6.722;2023-05-27T06:38:33;18.10;;;3.42;;
52894;SDS011;38759;53.396;6.722;2023-05-27T06:40:59;18.77;;;3.58;;
52894;SDS011;38759;53.396;6.722;2023-05-27T06:43:24;21.05;;;4.18;;
52894;SDS011;38759;53.396;6.722;2023-05-27T06:45:50;18.25;;;3.67;;
52894;SDS011;38759;53.396;6.722;2023-05-27T06:48:16;23.95;;;3.80;;
52894;SDS011;38759;53.396;6.722;2023-05-27T06:50:41;29.75;;;3.97;;
52894;SDS011;38759;53.396;6.722;2023-05-27T06:53:07;20.50;;;4.00;;
52894;SDS011;38759;53.396;6.722;2023-05-27T06:55:33;14.82;;;3.22;;
52894;SDS011;38759;53.396;6.722;2023-05-27T06:57:58;22.70;;;3.58;;
52894;SDS011;38759;53.396;6.722;2023-05-27T07:00:24;22.02;;;3.63;;
52894;SDS011;38759;53.396;6.722;2023-05-27T07:02:51;21.33;;;3.92;;
52894;SDS011;38759;53.396;6.722;2023-05-27T07:05:16;21.73;;;4.45;;
52894;SDS011;38759;53.396;6.722;2023-05-27T07:07:42;18.73;;;3.70;;
52894;SDS011;38759;53.396;6.722;2023-05-27T07:10:08;17.02;;;3.90;;
52894;SDS011;38759;53.396;6.722;2023-05-27T07:12:33;13.88;;;3.50;;
52894;SDS011;38759;53.396;6.722;2023-05-27T07:14:59;15.85;;;3.35;;
52894;SDS011;38759;53.396;6.722;2023-05-27T07:17:25;21.98;;;3.92;;
52894;SDS011;38759;53.396;6.722;2023-05-27T07:19:50;14.73;;;4.05;;
52894;SDS011;38759;53.396;6.722;2023-05-27T07:22:16;21.60;;;3.92;;
52894;SDS011;38759;53.396;6.722;2023-05-27T07:24:43;21.42;;;4.30;;
52894;SDS011;38759;53.396;6.722;2023-05-27T07:27:08;16.92;;;3.53;;
52894;SDS011;38759;53.396;6.722;2023-05-27T07:29:34;15.23;;;3.50;;
52894;SDS011;38759;53.396;6.722;2023-05-27T07:32:00;14.73;;;3.97;;
52894;SDS011;38759;53.396;6.722;2023-05-27T07:34:25;23.42;;;3.95;;
52894;SDS011;38759;53.396;6.722;2023-05-27T07:36:51;18.25;;;4.32;;
52894;SDS011;38759;53.396;6.722;2023-05-27T07:39:17;21.50;;;4.22;;
52894;SDS011;38759;53.396;6.722;2023-05-27T07:41:43;19.55;;;3.78;;
52894;SDS011;38759;53.396;6.722;2023-05-27T07:44:08;21.95;;;4.38;;
52894;SDS011;38759;53.396;6.722;2023-05-27T07:46:34;38.88;;;4.13;;
52894;SDS011;38759;53.396;6.722;2023-05-27T07:49:04;34.33;;;4.80;;
52894;SDS011;38759;53.396;6.722;2023-05-27T07:51:30;21.40;;;4.75;;
52894;SDS011;38759;53.396;6.722;2023-05-27T07:53:57;18.35;;;3.28;;
52894;SDS011;38759;53.396;6.722;2023-05-27T07:56:22;22.10;;;3.28;;
52894;SDS011;38759;53.396;6.722;2023-05-27T07:58:48;22.25;;;3.70;;
52894;SDS011;38759;53.396;6.722;2023-05-27T08:01:13;21.55;;;3.45;;
52894;SDS011;38759;53.396;6.722;2023-05-27T08:03:39;26.27;;;4.10;;
52894;SDS011;38759;53.396;6.722;2023-05-27T08:06:05;18.15;;;4.15;;
52894;SDS011;38759;53.396;6.722;2023-05-27T08:08:31;24.13;;;4.63;;
52894;SDS011;38759;53.396;6.722;2023-05-27T08:10:56;22.33;;;4.30;;
52894;SDS011;38759;53.396;6.722;2023-05-27T08:13:22;21.85;;;3.55;;
52894;SDS011;38759;53.396;6.722;2023-05-27T08:15:48;37.58;;;6.38;;
52894;SDS011;38759;53.396;6.722;2023-05-27T08:18:13;25.08;;;6.07;;
52894;SDS011;38759;53.396;6.722;2023-05-27T08:20:39;29.40;;;6.05;;
52894;SDS011;38759;53.396;6.722;2023-05-27T08:23:05;28.38;;;6.05;;
52894;SDS011;38759;53.396;6.722;2023-05-27T08:25:31;18.40;;;4.03;;
52894;SDS011;38759;53.396;6.722;2023-05-27T08:27:56;17.35;;;4.47;;
52894;SDS011;38759;53.396;6.722;2023-05-27T08:30:26;20.05;;;4.10;;
52894;SDS011;38759;53.396;6.722;2023-05-27T08:32:53;19.13;;;3.53;;
52894;SDS011;38759;53.396;6.722;2023-05-27T08:35:20;25.27;;;6.22;;
52894;SDS011;38759;53.396;6.722;2023-05-27T08:37:45;25.90;;;6.20;;
52894;SDS011;38759;53.396;6.722;2023-05-27T08:40:15;17.20;;;4.65;;
52894;SDS011;38759;53.396;6.722;2023-05-27T08:42:43;24.45;;;5.80;;
52894;SDS011;38759;53.396;6.722;2023-05-27T08:45:10;18.45;;;3.58;;
52894;SDS011;38759;53.396;6.722;2023-05-27T08:47:37;24.35;;;5.65;;
52894;SDS011;38759;53.396;6.722;2023-05-27T08:50:03;23.63;;;5.70;;
52894;SDS011;38759;53.396;6.722;2023-05-27T08:52:31;23.55;;;5.53;;
52894;SDS011;38759;53.396;6.722;2023-05-27T08:54:57;12.40;;;3.00;;
52894;SDS011;38759;53.396;6.722;2023-05-27T08:57:28;23.58;;;5.70;;
52894;SDS011;38759;53.396;6.722;2023-05-27T08:59:55;16.88;;;4.10;;
52894;SDS011;38759;53.396;6.722;2023-05-27T09:02:22;17.40;;;5.22;;
52894;SDS011;38759;53.396;6.722;2023-05-27T09:04:48;21.50;;;5.75;;
52894;SDS011;38759;53.396;6.722;2023-05-27T09:07:14;21.30;;;5.90;;
52894;SDS011;38759;53.396;6.722;2023-05-27T09:09:40;24.00;;;5.80;;
52894;SDS011;38759;53.396;6.722;2023-05-27T09:12:06;24.30;;;6.13;;
52894;SDS011;38759;53.396;6.722;2023-05-27T09:14:34;24.58;;;5.53;;
52894;SDS011;38759;53.396;6.722;2023-05-27T09:17:06;26.83;;;6.22;;
52894;SDS011;38759;53.396;6.722;2023-05-27T09:19:33;25.25;;;5.82;;
52894;SDS011;38759;53.396;6.722;2023-05-27T09:22:00;19.42;;;5.45;;
52894;SDS011;38759;53.396;6.722;2023-05-27T09:24:26;17.88;;;4.88;;
52894;SDS011;38759;53.396;6.722;2023-05-27T09:26:52;17.58;;;3.30;;
52894;SDS011;38759;53.396;6.722;2023-05-27T09:29:19;23.73;;;5.72;;
52894;SDS011;38759;53.396;6.722;2023-05-27T09:31:45;19.27;;;5.57;;
52894;SDS011;38759;53.396;6.722;2023-05-27T09:34:15;17.00;;;5.20;;
52894;SDS011;38759;53.396;6.722;2023-05-27T09:36:41;24.00;;;6.43;;
52894;SDS011;38759;53.396;6.722;2023-05-27T09:39:12;24.90;;;6.18;;
52894;SDS011;38759;53.396;6.722;2023-05-27T09:41:50;15.13;;;4.78;;
52894;SDS011;38759;53.396;6.722;2023-05-27T09:44:18;23.98;;;6.22;;
52894;SDS011;38759;53.396;6.722;2023-05-27T09:46:44;21.38;;;6.13;;
52894;SDS011;38759;53.396;6.722;2023-05-27T09:49:12;19.13;;;5.85;;
52894;SDS011;38759;53.396;6.722;2023-05-27T09:51:40;20.23;;;5.65;;
52894;SDS011;38759;53.396;6.722;2023-05-27T09:54:06;20.38;;;5.65;;
52894;SDS011;38759;53.396;6.722;2023-05-27T09:56:34;21.38;;;5.18;;
52894;SDS011;38759;53.396;6.722;2023-05-27T09:59:00;20.83;;;5.43;;
52894;SDS011;38759;53.396;6.722;2023-05-27T10:01:26;17.40;;;4.60;;
52894;SDS011;38759;53.396;6.722;2023-05-27T10:03:54;22.73;;;5.88;;
52894;SDS011;38759;53.396;6.722;2023-05-27T10:06:21;21.17;;;5.60;;
52894;SDS011;38759;53.396;6.722;2023-05-27T10:08:49;21.45;;;5.82;;
52894;SDS011;38759;53.396;6.722;2023-05-27T10:11:17;23.25;;;5.53;;
52894;SDS011;38759;53.396;6.722;2023-05-27T10:13:44;32.30;;;6.10;;
52894;SDS011;38759;53.396;6.722;2023-05-27T10:16:20;26.42;;;5.68;;
52894;SDS011;38759;53.396;6.722;2023-05-27T10:18:47;30.83;;;6.78;;
52894;SDS011;38759;53.396;6.722;2023-05-27T10:21:21;18.15;;;5.70;;
52894;SDS011;38759;53.396;6.722;2023-05-27T10:23:52;24.42;;;5.97;;
52894;SDS011;38759;53.396;6.722;2023-05-27T10:26:31;21.52;;;5.72;;
52894;SDS011;38759;53.396;6.722;2023-05-27T10:29:05;20.17;;;6.03;;
52894;SDS011;38759;53.396;6.722;2023-05-27T10:31:35;16.75;;;5.22;;
52894;SDS011;38759;53.396;6.722;2023-05-27T10:36:36;22.23;;;5.78;;
52894;SDS011;38759;53.396;6.722;2023-05-27T10:39:05;18.30;;;5.43;;
52894;SDS011;38759;53.396;6.722;2023-05-27T10:41:48;21.50;;;5.57;;
52894;SDS011;38759;53.396;6.722;2023-05-27T10:44:28;20.95;;;5.28;;
52894;SDS011;38759;53.396;6.722;2023-05-27T10:49:32;18.67;;;4.80;;
52894;SDS011;38759;53.396;6.722;2023-05-27T10:52:15;18.85;;;5.70;;
52894;SDS011;38759;53.396;6.722;2023-05-27T10:54:43;20.88;;;5.28;;
52894;SDS011;38759;53.396;6.722;2023-05-27T10:57:11;23.50;;;6.15;;
52894;SDS011;38759;53.396;6.722;2023-05-27T11:02:16;30.63;;;7.75;;
52894;SDS011;38759;53.396;6.722;2023-05-27T11:04:42;19.92;;;5.97;;
52894;SDS011;38759;53.396;6.722;2023-05-27T11:07:08;20.58;;;5.65;;
52894;SDS011;38759;53.396;6.722;2023-05-27T11:12:16;71.38;;;7.88;;
52894;SDS011;38759;53.396;6.722;2023-05-27T11:14:43;54.55;;;7.65;;
52894;SDS011;38759;53.396;6.722;2023-05-27T11:17:10;23.60;;;5.95;;
52894;SDS011;38759;53.396;6.722;2023-05-27T11:19:38;21.65;;;5.95;;
52894;SDS011;38759;53.396;6.722;2023-05-27T11:22:05;17.27;;;5.43;;
52894;SDS011;38759;53.396;6.722;2023-05-27T11:24:35;22.33;;;5.25;;
52894;SDS011;38759;53.396;6.722;2023-05-27T11:27:08;21.95;;;5.75;;
52894;SDS011;38759;53.396;6.722;2023-05-27T11:29:34;19.42;;;5.35;;
52894;SDS011;38759;53.396;6.722;2023-05-27T11:32:01;19.65;;;4.70;;
52894;SDS011;38759;53.396;6.722;2023-05-27T11:34:27;22.55;;;6.18;;
52894;SDS011;38759;53.396;6.722;2023-05-27T11:36:53;15.75;;;5.32;;
52894;SDS011;38759;53.396;6.722;2023-05-27T11:39:18;17.58;;;5.38;;
52894;SDS011;38759;53.396;6.722;2023-05-27T11:41:51;21.17;;;5.68;;
52894;SDS011;38759;53.396;6.722;2023-05-27T11:44:22;21.23;;;5.88;;
52894;SDS011;38759;53.396;6.722;2023-05-27T11:46:49;18.73;;;5.30;;
52894;SDS011;38759;53.396;6.722;2023-05-27T11:49:16;20.20;;;5.20;;
52894;SDS011;38759;53.396;6.722;2023-05-27T11:51:44;19.75;;;4.95;;
52894;SDS011;38759;53.396;6.722;2023-05-27T11:56:51;17.30;;;5.25;;
52894;SDS011;38759;53.396;6.722;2023-05-27T11:59:18;23.08;;;5.50;;
52894;SDS011;38759;53.396;6.722;2023-05-27T12:01:44;20.25;;;5.30;;
52894;SDS011;38759;53.396;6.722;2023-05-27T12:04:10;19.33;;;5.45;;
52894;SDS011;38759;53.396;6.722;2023-05-27T12:06:37;20.13;;;5.25;;
52894;SDS011;38759;53.396;6.722;2023-05-27T12:09:03;20.90;;;5.68;;
52894;SDS011;38759;53.396;6.722;2023-05-27T12:11:30;136.90;;;12.23;;
52894;SDS011;38759;53.396;6.722;2023-05-27T12:13:57;100.50;;;11.30;;
52894;SDS011;38759;53.396;6.722;2023-05-27T12:16:23;35.25;;;6.47;;
52894;SDS011;38759;53.396;6.722;2023-05-27T12:18:48;24.20;;;5.60;;
52894;SDS011;38759;53.396;6.722;2023-05-27T12:21:15;21.60;;;5.65;;
52894;SDS011;38759;53.396;6.722;2023-05-27T12:23:41;22.63;;;5.63;;
52894;SDS011;38759;53.396;6.722;2023-05-27T12:26:07;19.80;;;5.60;;
52894;SDS011;38759;53.396;6.722;2023-05-27T12:28:33;20.05;;;5.13;;
52894;SDS011;38759;53.396;6.722;2023-05-27T12:30:58;24.27;;;5.95;;
52894;SDS011;38759;53.396;6.722;2023-05-27T12:33:25;20.08;;;5.18;;
52894;SDS011;38759;53.396;6.722;2023-05-27T12:35:51;22.15;;;5.50;;
52894;SDS011;38759;53.396;6.722;2023-05-27T12:38:17;19.77;;;5.13;;
52894;SDS011;38759;53.396;6.722;2023-05-27T12:40:43;26.67;;;5.03;;
52894;SDS011;38759;53.396;6.722;2023-05-27T12:43:09;23.92;;;6.30;;
52894;SDS011;38759;53.396;6.722;2023-05-27T12:45:35;22.88;;;5.22;;
52894;SDS011;38759;53.396;6.722;2023-05-27T12:48:00;23.65;;;5.57;;
52894;SDS011;38759;53.396;6.722;2023-05-27T12:50:27;66.63;;;7.40;;
52894;SDS011;38759;53.396;6.722;2023-05-27T12:52:52;21.10;;;5.78;;
52894;SDS011;38759;53.396;6.722;2023-05-27T12:55:19;25.98;;;5.72;;
52894;SDS011;38759;53.396;6.722;2023-05-27T12:57:49;23.65;;;5.90;;
52894;SDS011;38759;53.396;6.722;2023-05-27T13:00:17;21.02;;;5.13;;
52894;SDS011;38759;53.396;6.722;2023-05-27T13:02:44;21.88;;;5.97;;
52894;SDS011;38759;53.396;6.722;2023-05-27T13:05:12;21.85;;;5.47;;
52894;SDS011;38759;53.396;6.722;2023-05-27T13:07:38;27.63;;;6.05;;
52894;SDS011;38759;53.396;6.722;2023-05-27T13:10:05;19.48;;;5.45;;
52894;SDS011;38759;53.396;6.722;2023-05-27T13:12:36;21.23;;;5.47;;
52894;SDS011;38759;53.396;6.722;2023-05-27T13:15:01;23.05;;;5.75;;
52894;SDS011;38759;53.396;6.722;2023-05-27T13:17:31;41.90;;;6.00;;
52894;SDS011;38759;53.396;6.722;2023-05-27T13:19:57;23.00;;;5.70;;
52894;SDS011;38759;53.396;6.722;2023-05-27T13:22:23;20.88;;;5.03;;
52894;SDS011;38759;53.396;6.722;2023-05-27T13:24:49;24.25;;;5.88;;
52894;SDS011;38759;53.396;6.722;2023-05-27T13:27:15;21.63;;;5.85;;
52894;SDS011;38759;53.396;6.722;2023-05-27T13:29:41;21.40;;;5.57;;
52894;SDS011;38759;53.396;6.722;2023-05-27T13:32:07;26.45;;;5.35;;
52894;SDS011;38759;53.396;6.722;2023-05-27T13:34:33;20.65;;;5.43;;
52894;SDS011;38759;53.396;6.722;2023-05-27T13:36:59;21.38;;;4.80;;
52894;SDS011;38759;53.396;6.722;2023-05-27T13:39:27;21.08;;;5.57;;
52894;SDS011;38759;53.396;6.722;2023-05-27T13:41:53;23.67;;;5.47;;
52894;SDS011;38759;53.396;6.722;2023-05-27T13:44:19;20.60;;;5.20;;
52894;SDS011;38759;53.396;6.722;2023-05-27T13:46:44;23.80;;;6.00;;
52894;SDS011;38759;53.396;6.722;2023-05-27T13:49:10;21.63;;;5.53;;
52894;SDS011;38759;53.396;6.722;2023-05-27T13:51:42;20.77;;;5.88;;
52894;SDS011;38759;53.396;6.722;2023-05-27T13:54:10;23.33;;;5.32;;
52894;SDS011;38759;53.396;6.722;2023-05-27T13:56:36;23.50;;;5.22;;
52894;SDS011;38759;53.396;6.722;2023-05-27T13:59:02;19.83;;;5.35;;
52894;SDS011;38759;53.396;6.722;2023-05-27T14:01:28;21.83;;;5.50;;
52894;SDS011;38759;53.396;6.722;2023-05-27T14:03:54;22.35;;;5.70;;
52894;SDS011;38759;53.396;6.722;2023-05-27T14:06:20;19.23;;;5.03;;
52894;SDS011;38759;53.396;6.722;2023-05-27T14:08:46;22.88;;;5.78;;
52894;SDS011;38759;53.396;6.722;2023-05-27T14:11:12;19.95;;;5.35;;
52894;SDS011;38759;53.396;6.722;2023-05-27T14:13:37;23.75;;;5.30;;
52894;SDS011;38759;53.396;6.722;2023-05-27T14:16:03;22.10;;;5.35;;
52894;SDS011;38759;53.396;6.722;2023-05-27T14:18:30;30.25;;;6.13;;
52894;SDS011;38759;53.396;6.722;2023-05-27T14:20:55;28.40;;;6.28;;
52894;SDS011;38759;53.396;6.722;2023-05-27T14:23:21;22.92;;;5.53;;
52894;SDS011;38759;53.396;6.722;2023-05-27T14:25:47;19.25;;;5.03;;
52894;SDS011;38759;53.396;6.722;2023-05-27T14:28:12;20.27;;;5.20;;
52894;SDS011;38759;53.396;6.722;2023-05-27T14:30:38;22.27;;;4.78;;
52894;SDS011;38759;53.396;6.722;2023-05-27T14:33:04;21.65;;;5.32;;
52894;SDS011;38759;53.396;6.722;2023-05-27T14:35:36;19.95;;;5.35;;
52894;SDS011;38759;53.396;6.722;2023-05-27T14:38:04;19.58;;;4.85;;
52894;SDS011;38759;53.396;6.722;2023-05-27T14:40:31;21.00;;;5.50;;
52894;SDS011;38759;53.396;6.722;2023-05-27T14:42:57;22.13;;;5.18;;
52894;SDS011;38759;53.396;6.722;2023-05-27T14:45:23;21.70;;;5.28;;
52894;SDS011;38759;53.396;6.722;2023-05-27T14:47:49;21.05;;;4.90;;
52894;SDS011;38759;53.396;6.722;2023-05-27T14:50:16;19.83;;;5.22;;